Artesian, South Dakota
Current Conditions -  °F | °C
As of 2:53 PM on Thursday 18 Dec 2014 (Local Time) from KMHE Reporting Station
NA  
Wind Chill: -8°   Ceiling: NA
Heat Index: -3°   Visibility: 7mi
Dew Point: -5°   Wind: 9mph
Humidity: 85%   Direction: 170°S
Pressure: 30.16"   Gusts: NA
Location:  44.01°N, 97.92°W
Report Text: KMHE 182053Z AUTO 17008KT 7SM M03/M05 A3016 RMK AO2 SLP233 T10281050 56013 $
Loading
Personal Weather Stations






























Interactive Weather Map New forecast layout! Learn more

10-Day Weather Forecast

Advertisements
Track Severe Weather on mobile